createdAt,value
2023-01-21T00:00:46.413Z,99.69
2023-01-21T00:01:47.196Z,99.48
2023-01-21T00:02:46.391Z,99.41
2023-01-21T00:03:46.547Z,99.20
2023-01-21T00:04:46.375Z,99.20
2023-01-21T00:05:46.360Z,99.09
2023-01-21T00:06:46.367Z,99.20
2023-01-21T00:07:46.348Z,99.35
2023-01-21T00:08:46.388Z,99.35
2023-01-21T00:09:46.323Z,99.13
2023-01-21T00:10:46.327Z,98.93
2023-01-21T00:11:46.293Z,98.93
2023-01-21T00:12:46.305Z,98.93
2023-01-21T00:13:46.641Z,99.13
2023-01-21T00:14:46.299Z,99.35
2023-01-21T00:15:46.307Z,99.56
2023-01-21T00:16:46.267Z,99.67
2023-01-21T00:17:46.241Z,99.71
2023-01-21T00:18:46.251Z,99.56
2023-01-21T00:19:46.231Z,99.77
2023-01-21T00:20:46.217Z,99.88
2023-01-21T00:21:46.203Z,99.99
2023-01-21T00:22:46.213Z,99.99
2023-01-21T00:23:46.192Z,99.99
2023-01-21T00:24:46.185Z,99.99
2023-01-21T00:25:46.169Z,99.99
2023-01-21T00:26:46.167Z,99.99
2023-01-21T00:27:46.155Z,99.99
2023-01-21T00:28:46.151Z,99.99
2023-01-21T00:29:46.135Z,99.99
2023-01-21T00:30:46.201Z,99.99
2023-01-21T00:31:46.194Z,99.99
2023-01-21T00:32:46.113Z,99.99
2023-01-21T00:33:46.266Z,99.99
2023-01-21T00:34:46.098Z,99.99
2023-01-21T00:35:46.083Z,99.99
2023-01-21T00:36:46.092Z,99.99
2023-01-21T00:37:46.065Z,99.99
2023-01-21T00:38:46.046Z,99.99
2023-01-21T00:39:46.039Z,99.99
2023-01-21T00:40:46.034Z,99.99
2023-01-21T00:41:46.027Z,99.99
2023-01-21T00:42:46.019Z,99.99
2023-01-21T00:43:46.812Z,99.99
2023-01-21T00:44:45.998Z,99.99
2023-01-21T00:45:45.977Z,99.99
2023-01-21T00:46:46.006Z,99.99
2023-01-21T00:47:45.965Z,99.99
2023-01-21T00:48:45.961Z,99.99
2023-01-21T00:49:46.056Z,99.99
2023-01-21T00:50:45.965Z,99.99
2023-01-21T00:51:45.917Z,99.99
2023-01-21T00:52:45.925Z,99.99
2023-01-21T00:53:45.901Z,99.99
2023-01-21T00:54:45.915Z,99.99
2023-01-21T00:55:45.903Z,99.99
2023-01-21T00:56:45.867Z,99.99
2023-01-21T00:57:45.867Z,99.99
2023-01-21T00:58:45.858Z,99.96
2023-01-21T00:59:45.870Z,99.85
2023-01-21T01:00:45.841Z,99.79
2023-01-21T01:01:45.870Z,99.69
2023-01-21T01:02:45.901Z,99.48
2023-01-21T01:03:45.820Z,99.26
2023-01-21T01:04:45.802Z,99.05
2023-01-21T01:05:45.855Z,98.88
2023-01-21T01:06:45.781Z,98.88
2023-01-21T01:07:45.770Z,98.88
2023-01-21T01:08:45.756Z,99.20
2023-01-21T01:09:45.752Z,99.41
2023-01-21T01:10:45.746Z,99.63
2023-01-21T01:11:45.900Z,99.73
2023-01-21T01:12:45.721Z,99.84
2023-01-21T01:13:45.789Z,99.95
2023-01-21T01:14:45.700Z,99.95
2023-01-21T01:15:45.753Z,99.95
2023-01-21T01:16:45.679Z,99.77
2023-01-21T01:17:45.688Z,99.67
2023-01-21T01:18:45.696Z,99.56
2023-01-21T01:19:45.693Z,99.56
2023-01-21T01:20:45.701Z,99.77
2023-01-21T01:21:45.658Z,99.88
2023-01-21T01:22:45.620Z,99.99
2023-01-21T01:23:45.620Z,99.99
2023-01-21T01:24:45.623Z,99.99
2023-01-21T01:25:45.611Z,99.99
2023-01-21T01:26:45.589Z,99.99
2023-01-21T01:27:45.590Z,99.99
2023-01-21T01:28:45.596Z,99.99
2023-01-21T01:29:45.570Z,99.99
2023-01-21T01:30:45.645Z,99.99
2023-01-21T01:31:45.696Z,99.99
2023-01-21T01:32:45.540Z,99.99
2023-01-21T01:33:45.564Z,99.88
2023-01-21T01:34:45.518Z,99.77
2023-01-21T01:35:45.512Z,99.82
2023-01-21T01:36:45.491Z,99.82
2023-01-21T01:37:45.501Z,99.93
2023-01-21T01:38:45.482Z,99.93
2023-01-21T01:39:45.481Z,99.99
2023-01-21T01:40:45.465Z,99.99
2023-01-21T01:41:45.464Z,99.99
2023-01-21T01:42:45.451Z,99.99
2023-01-21T01:43:45.441Z,99.99
2023-01-21T01:44:45.732Z,99.99
2023-01-21T01:45:45.422Z,99.99
2023-01-21T01:46:45.417Z,99.99
2023-01-21T01:47:45.404Z,99.99
2023-01-21T01:48:45.383Z,99.99
2023-01-21T01:49:45.382Z,99.99
2023-01-21T01:50:45.398Z,99.99
2023-01-21T01:51:45.372Z,99.99
2023-01-21T01:52:45.342Z,99.99
2023-01-21T01:53:45.343Z,99.99
2023-01-21T01:54:45.330Z,99.99
2023-01-21T01:55:46.148Z,99.99
2023-01-21T01:56:45.303Z,99.99
2023-01-21T01:57:45.302Z,99.99
2023-01-21T01:58:45.296Z,99.99
2023-01-21T01:59:45.383Z,99.99
2023-01-21T02:00:45.287Z,99.99
2023-01-21T02:01:45.298Z,99.99
2023-01-21T02:02:45.308Z,99.99
2023-01-21T02:03:45.244Z,99.99
2023-01-21T02:04:45.225Z,99.99
2023-01-21T02:05:45.242Z,99.99
2023-01-21T02:06:45.204Z,99.99
2023-01-21T02:07:45.214Z,99.95
2023-01-21T02:08:45.184Z,99.99
2023-01-21T02:09:45.184Z,99.99
2023-01-21T02:10:45.165Z,99.99
2023-01-21T02:11:45.173Z,99.99
2023-01-21T02:12:45.154Z,99.95
2023-01-21T02:13:45.167Z,99.84
2023-01-21T02:14:45.143Z,99.84
2023-01-21T02:15:45.170Z,99.63
2023-01-21T02:16:45.142Z,99.30
2023-01-21T02:17:45.124Z,99.09
2023-01-21T02:18:45.105Z,98.99
2023-01-21T02:19:45.099Z,98.77
2023-01-21T02:20:45.074Z,98.82
2023-01-21T02:21:45.086Z,98.71
2023-01-21T02:22:45.059Z,98.71
2023-01-21T02:23:45.068Z,98.71
2023-01-21T02:24:45.050Z,98.71
2023-01-21T02:25:45.145Z,98.71
2023-01-21T02:26:45.014Z,98.86
2023-01-21T02:27:45.235Z,98.86
2023-01-21T02:28:45.007Z,98.75
2023-01-21T02:29:45.012Z,98.75
2023-01-21T02:30:45.006Z,98.97
2023-01-21T02:31:45.061Z,99.07
2023-01-21T02:32:45.776Z,99.29
2023-01-21T02:33:44.960Z,99.40
2023-01-21T02:34:44.966Z,99.40
2023-01-21T02:35:44.947Z,99.40
2023-01-21T02:36:44.961Z,99.40
2023-01-21T02:37:44.932Z,99.40
2023-01-21T02:38:44.922Z,99.40
2023-01-21T02:39:44.907Z,99.40
2023-01-21T02:40:44.906Z,99.29
2023-01-21T02:41:44.890Z,99.18
2023-01-21T02:42:44.874Z,99.07
2023-01-21T02:43:44.892Z,99.18
2023-01-21T02:44:44.856Z,99.29
2023-01-21T02:45:44.850Z,99.40
2023-01-21T02:46:44.904Z,99.50
2023-01-21T02:47:44.843Z,99.71
2023-01-21T02:48:44.824Z,99.88
2023-01-21T02:49:44.908Z,99.99
2023-01-21T02:50:44.938Z,99.99
2023-01-21T02:51:44.798Z,99.99
2023-01-21T02:52:44.792Z,99.99
2023-01-21T02:53:45.221Z,99.99
2023-01-21T02:54:44.759Z,99.99
2023-01-21T02:55:44.766Z,99.99
2023-01-21T02:56:44.740Z,99.99
2023-01-21T02:57:45.559Z,99.88
2023-01-21T02:58:44.719Z,99.73
2023-01-21T02:59:45.433Z,99.73
2023-01-21T03:00:44.756Z,99.73
2023-01-21T03:01:44.730Z,99.84
2023-01-21T03:02:44.699Z,99.99
2023-01-21T03:03:44.682Z,99.99
2023-01-21T03:04:44.668Z,99.99
2023-01-21T03:05:44.672Z,99.99
2023-01-21T03:06:44.650Z,99.99
2023-01-21T03:07:44.647Z,99.99
2023-01-21T03:08:44.630Z,99.99
2023-01-21T03:09:44.641Z,99.99
2023-01-21T03:10:44.625Z,99.99
2023-01-21T03:11:44.600Z,99.99
2023-01-21T03:12:44.591Z,99.99
2023-01-21T03:13:44.667Z,99.99
2023-01-21T03:14:44.586Z,99.87
2023-01-21T03:15:44.580Z,99.87
2023-01-21T03:16:44.557Z,99.77
2023-01-21T03:17:44.558Z,99.77
2023-01-21T03:18:44.543Z,99.77
2023-01-21T03:19:44.532Z,99.66
2023-01-21T03:20:44.529Z,99.71
2023-01-21T03:21:44.542Z,99.60
2023-01-21T03:22:44.528Z,99.60
2023-01-21T03:23:44.490Z,99.60
2023-01-21T03:24:44.480Z,99.60
2023-01-21T03:25:44.912Z,99.49
2023-01-21T03:26:45.925Z,99.43
2023-01-21T03:27:44.459Z,99.43
2023-01-21T03:28:44.452Z,99.81
2023-01-21T03:29:44.441Z,99.99
2023-01-21T03:30:44.439Z,99.99
2023-01-21T03:31:44.482Z,99.99
2023-01-21T03:32:44.403Z,99.99
2023-01-21T03:33:46.651Z,99.99
2023-01-21T03:34:44.536Z,99.99
2023-01-21T03:35:44.394Z,99.99
2023-01-21T03:36:44.357Z,99.99
2023-01-21T03:37:44.683Z,99.99
2023-01-21T03:38:44.340Z,99.99
2023-01-21T03:39:44.594Z,99.99
2023-01-21T03:40:44.330Z,99.99
2023-01-21T03:41:45.123Z,99.99
2023-01-21T03:42:44.384Z,99.99
2023-01-21T03:43:44.309Z,99.79
2023-01-21T03:44:44.293Z,99.79
2023-01-21T03:45:44.358Z,99.79
2023-01-21T03:46:44.275Z,99.68
2023-01-21T03:47:44.273Z,99.79
2023-01-21T03:48:44.260Z,99.89
2023-01-21T03:49:45.044Z,99.99
2023-01-21T03:50:44.302Z,99.99
2023-01-21T03:51:44.237Z,99.89
2023-01-21T03:52:44.249Z,99.99
2023-01-21T03:53:44.596Z,99.99
2023-01-21T03:54:44.198Z,99.99
2023-01-21T03:55:44.184Z,99.99
2023-01-21T03:56:44.184Z,99.99
2023-01-21T03:57:44.171Z,99.99
2023-01-21T03:58:44.165Z,99.99
2023-01-21T03:59:44.168Z,99.99
2023-01-21T04:00:44.387Z,99.99
2023-01-21T04:01:44.133Z,99.99
2023-01-21T04:02:44.124Z,99.99
2023-01-21T04:03:44.120Z,99.99
2023-01-21T04:04:44.096Z,99.99
2023-01-21T04:05:44.198Z,99.99
2023-01-21T04:06:44.075Z,99.99
2023-01-21T04:07:44.076Z,99.99
2023-01-21T04:08:44.072Z,99.99
2023-01-21T04:09:44.059Z,99.99
2023-01-21T04:10:44.045Z,99.99
2023-01-21T04:11:44.157Z,99.99
2023-01-21T04:12:44.029Z,99.99
2023-01-21T04:13:44.046Z,99.99
2023-01-21T04:14:44.006Z,99.99
2023-01-21T04:15:43.996Z,99.99
2023-01-21T04:16:44.018Z,99.99
2023-01-21T04:17:43.990Z,99.99
2023-01-21T04:18:43.969Z,99.99
2023-01-21T04:19:43.988Z,99.99
2023-01-21T04:20:43.947Z,99.99
2023-01-21T04:21:43.945Z,99.94
2023-01-21T04:22:43.956Z,99.84
2023-01-21T04:23:43.927Z,99.73
2023-01-21T04:24:44.408Z,99.62
2023-01-21T04:25:43.898Z,99.62
2023-01-21T04:26:43.918Z,99.52
2023-01-21T04:27:43.904Z,99.52
2023-01-21T04:28:43.864Z,99.41
2023-01-21T04:29:43.868Z,99.19
2023-01-21T04:30:44.269Z,99.09
2023-01-21T04:31:43.963Z,99.09
2023-01-21T04:32:43.839Z,99.26
2023-01-21T04:33:43.844Z,99.47
2023-01-21T04:34:43.985Z,99.68
2023-01-21T04:35:43.935Z,99.68
2023-01-21T04:36:43.799Z,99.68
2023-01-21T04:37:43.829Z,99.47
2023-01-21T04:38:44.579Z,99.37
2023-01-21T04:39:43.776Z,99.26
2023-01-21T04:40:43.760Z,99.05
2023-01-21T04:41:43.770Z,99.05
2023-01-21T04:42:43.743Z,99.05
2023-01-21T04:43:43.741Z,99.15
2023-01-21T04:44:43.725Z,99.15
2023-01-21T04:45:44.532Z,99.26
2023-01-21T04:46:43.700Z,99.37
2023-01-21T04:47:43.711Z,99.37
2023-01-21T04:48:43.699Z,99.37
2023-01-21T04:49:43.690Z,99.32
2023-01-21T04:50:43.775Z,99.43
2023-01-21T04:51:43.658Z,99.43
2023-01-21T04:52:43.641Z,99.43
2023-01-21T04:53:44.445Z,99.53
2023-01-21T04:54:43.628Z,99.53
2023-01-21T04:55:43.630Z,99.64
2023-01-21T04:56:43.626Z,99.64
2023-01-21T04:57:43.606Z,99.64
2023-01-21T04:58:43.575Z,99.74
2023-01-21T04:59:43.677Z,99.85
2023-01-21T05:00:43.567Z,99.96
2023-01-21T05:01:43.742Z,99.99
2023-01-21T05:02:43.548Z,99.99
2023-01-21T05:03:43.551Z,99.99
2023-01-21T05:04:43.522Z,99.85
2023-01-21T05:05:43.542Z,99.70
2023-01-21T05:06:43.515Z,99.59
2023-01-21T05:07:43.505Z,99.49
2023-01-21T05:08:43.494Z,99.27
2023-01-21T05:09:43.489Z,99.17
2023-01-21T05:10:43.656Z,99.07
2023-01-21T05:11:43.463Z,99.17
2023-01-21T05:12:43.455Z,99.07
2023-01-21T05:13:43.442Z,99.07
2023-01-21T05:14:43.550Z,98.96
2023-01-21T05:15:43.451Z,98.74
2023-01-21T05:16:43.473Z,98.64
2023-01-21T05:17:43.406Z,98.74
2023-01-21T05:18:46.402Z,98.74
2023-01-21T05:19:43.375Z,98.74
2023-01-21T05:20:43.384Z,98.74
2023-01-21T05:21:43.375Z,98.85
2023-01-21T05:22:43.355Z,98.85
2023-01-21T05:23:43.339Z,98.85
2023-01-21T05:24:43.359Z,98.85
2023-01-21T05:25:43.323Z,98.85
2023-01-21T05:26:43.338Z,98.64
2023-01-21T05:27:43.326Z,98.64
2023-01-21T05:28:43.408Z,98.68
2023-01-21T05:29:43.315Z,98.79
2023-01-21T05:30:44.690Z,98.90
2023-01-21T05:31:43.394Z,98.90
2023-01-21T05:32:44.075Z,99.11
2023-01-21T05:33:43.264Z,99.32
2023-01-21T05:34:43.248Z,99.49
2023-01-21T05:35:43.238Z,99.59
2023-01-21T05:36:43.710Z,99.80
2023-01-21T05:37:43.236Z,99.91
2023-01-21T05:38:43.219Z,99.91
2023-01-21T05:39:43.204Z,99.91
2023-01-21T05:40:43.185Z,99.91
2023-01-21T05:41:43.166Z,99.80
2023-01-21T05:42:43.178Z,99.80
2023-01-21T05:43:43.963Z,99.80
2023-01-21T05:44:43.170Z,99.80
2023-01-21T05:45:43.136Z,99.80
2023-01-21T05:46:43.116Z,99.70
2023-01-21T05:47:43.106Z,99.70
2023-01-21T05:48:43.117Z,99.70
2023-01-21T05:49:43.093Z,99.80
2023-01-21T05:50:43.095Z,99.80
2023-01-21T05:51:43.068Z,99.91
2023-01-21T05:52:43.076Z,99.91
2023-01-21T05:53:43.048Z,99.91
2023-01-21T05:54:59.969Z,99.80
2023-01-21T05:55:44.148Z,99.87
2023-01-21T05:56:43.029Z,99.87
2023-01-21T05:57:43.830Z,99.87
2023-01-21T05:58:43.026Z,99.76
2023-01-21T05:59:43.007Z,99.65
2023-01-21T06:00:42.998Z,99.65
2023-01-21T06:01:42.981Z,99.65
2023-01-21T06:02:42.984Z,99.76
2023-01-21T06:03:42.960Z,99.87
2023-01-21T06:04:43.287Z,99.87
2023-01-21T06:05:42.941Z,99.87
2023-01-21T06:06:42.929Z,99.76
2023-01-21T06:07:42.933Z,99.65
2023-01-21T06:08:42.923Z,99.61
2023-01-21T06:09:42.903Z,99.61
2023-01-21T06:10:42.903Z,99.61
2023-01-21T06:11:43.549Z,99.51
2023-01-21T06:12:42.885Z,99.51
2023-01-21T06:13:42.854Z,99.61
2023-01-21T06:14:42.876Z,99.61
2023-01-21T06:15:43.077Z,99.51
2023-01-21T06:16:42.839Z,99.51
2023-01-21T06:17:42.935Z,99.40
2023-01-21T06:18:42.821Z,99.29
2023-01-21T06:19:42.880Z,99.40
2023-01-21T06:20:42.887Z,99.51
2023-01-21T06:21:42.782Z,99.51
2023-01-21T06:22:42.779Z,99.40
2023-01-21T06:23:42.768Z,99.40
2023-01-21T06:24:42.956Z,99.29
2023-01-21T06:25:42.750Z,99.40
2023-01-21T06:26:42.781Z,99.40
2023-01-21T06:27:42.748Z,99.51
2023-01-21T06:28:42.729Z,99.51
2023-01-21T06:29:42.729Z,99.51
2023-01-21T06:30:42.724Z,99.61
2023-01-21T06:31:42.852Z,99.71
2023-01-21T06:32:42.684Z,99.77
2023-01-21T06:33:42.835Z,99.77
2023-01-21T06:34:43.716Z,99.77
2023-01-21T06:35:42.671Z,99.82
2023-01-21T06:36:42.800Z,99.77
2023-01-21T06:37:42.628Z,99.88
2023-01-21T06:38:42.626Z,99.88
2023-01-21T06:39:42.614Z,99.99
2023-01-21T06:40:42.604Z,99.99
2023-01-21T06:41:42.593Z,99.99
2023-01-21T06:42:42.586Z,99.99
2023-01-21T06:43:42.577Z,99.99
2023-01-21T06:44:42.686Z,99.99
2023-01-21T06:45:42.569Z,99.99
2023-01-21T06:46:45.986Z,99.99
2023-01-21T06:47:43.553Z,99.99
2023-01-21T06:48:42.544Z,99.99
2023-01-21T06:49:42.575Z,99.99
2023-01-21T06:50:42.527Z,99.99
2023-01-21T06:51:42.500Z,99.99
2023-01-21T06:52:42.494Z,99.99
2023-01-21T06:53:42.483Z,99.99
2023-01-21T06:54:42.485Z,99.99
2023-01-21T06:55:42.454Z,99.99
2023-01-21T06:56:42.459Z,99.99
2023-01-21T06:57:42.469Z,99.99
2023-01-21T06:58:42.427Z,99.99
2023-01-21T06:59:42.427Z,99.99
2023-01-21T07:00:42.490Z,99.99
2023-01-21T07:01:42.433Z,99.99
2023-01-21T07:02:42.434Z,99.99
2023-01-21T07:03:42.412Z,99.99
2023-01-21T07:04:42.454Z,99.99
2023-01-21T07:05:42.363Z,99.99
2023-01-21T07:06:42.386Z,99.99
2023-01-21T07:07:42.351Z,99.99
2023-01-21T07:08:42.365Z,99.99
2023-01-21T07:09:42.409Z,99.99
2023-01-21T07:10:42.307Z,99.99
2023-01-21T07:11:42.296Z,99.99
2023-01-21T07:12:42.287Z,99.99
2023-01-21T07:13:42.291Z,99.99
2023-01-21T07:14:43.120Z,99.99
2023-01-21T07:15:42.336Z,99.99
2023-01-21T07:16:42.260Z,99.99
2023-01-21T07:17:42.243Z,99.99
2023-01-21T07:18:42.250Z,99.99
2023-01-21T07:19:42.226Z,99.99
2023-01-21T07:20:42.230Z,99.90
2023-01-21T07:21:42.199Z,99.79
2023-01-21T07:22:42.202Z,99.64
2023-01-21T07:23:42.181Z,99.54
2023-01-21T07:24:42.177Z,99.54
2023-01-21T07:25:42.247Z,99.32
2023-01-21T07:26:42.241Z,99.11
2023-01-21T07:27:42.209Z,98.90
2023-01-21T07:28:42.953Z,98.80
2023-01-21T07:29:42.161Z,98.86
2023-01-21T07:30:42.211Z,98.75
2023-01-21T07:31:42.270Z,98.65
2023-01-21T07:32:42.132Z,98.65
2023-01-21T07:33:42.122Z,98.65
2023-01-21T07:34:43.632Z,98.43
2023-01-21T07:35:42.102Z,98.43
2023-01-21T07:36:42.105Z,98.43
2023-01-21T07:37:42.097Z,98.54
2023-01-21T07:38:42.101Z,98.54
2023-01-21T07:39:42.043Z,98.65
2023-01-21T07:40:42.057Z,98.65
2023-01-21T07:41:42.076Z,98.65
2023-01-21T07:42:42.049Z,98.71
2023-01-21T07:43:42.670Z,98.71
2023-01-21T07:44:42.046Z,98.81
2023-01-21T07:45:42.044Z,98.81
2023-01-21T07:46:42.054Z,98.81
2023-01-21T07:47:41.984Z,98.92
2023-01-21T07:48:42.013Z,98.92
2023-01-21T07:49:41.994Z,98.81
2023-01-21T07:50:41.961Z,98.71
2023-01-21T07:51:41.943Z,98.71
2023-01-21T07:52:41.944Z,98.71
2023-01-21T07:53:41.973Z,98.81
2023-01-21T07:54:41.906Z,98.92
2023-01-21T07:55:41.955Z,98.81
2023-01-21T07:56:41.938Z,98.81
2023-01-21T07:57:41.895Z,98.55
2023-01-21T07:58:41.938Z,98.18
2023-01-21T07:59:41.882Z,98.28
2023-01-21T08:00:41.830Z,98.35
2023-01-21T08:01:41.923Z,98.35
2023-01-21T08:02:41.860Z,98.13
2023-01-21T08:03:41.828Z,97.81
2023-01-21T08:04:41.870Z,97.61
2023-01-21T08:05:41.892Z,97.50
2023-01-21T08:06:41.785Z,97.39
2023-01-21T08:07:41.826Z,97.39
2023-01-21T08:08:41.901Z,97.19
2023-01-21T08:09:41.791Z,97.08
2023-01-21T08:10:41.803Z,96.87
2023-01-21T08:11:41.753Z,97.03
2023-01-21T08:12:41.740Z,96.72
2023-01-21T08:13:41.772Z,96.93
2023-01-21T08:14:41.738Z,96.83
2023-01-21T08:15:41.670Z,96.61
2023-01-21T08:16:41.743Z,96.51
2023-01-21T08:17:41.681Z,96.30
2023-01-21T08:18:41.689Z,96.19
2023-01-21T08:19:41.641Z,95.98
2023-01-21T08:20:41.639Z,96.19
2023-01-21T08:21:41.611Z,96.51
2023-01-21T08:22:41.621Z,96.61
2023-01-21T08:23:41.610Z,96.61
2023-01-21T08:24:41.601Z,96.30
2023-01-21T08:25:41.580Z,96.09
2023-01-21T08:26:41.573Z,96.09
2023-01-21T08:27:41.552Z,96.25
2023-01-21T08:28:41.598Z,95.94
2023-01-21T08:29:41.543Z,95.98
2023-01-21T08:30:41.621Z,95.87
2023-01-21T08:31:41.922Z,95.94
2023-01-21T08:32:41.519Z,96.04
2023-01-21T08:33:41.631Z,96.15
2023-01-21T08:34:41.991Z,96.11
2023-01-21T08:35:41.501Z,95.68
2023-01-21T08:36:41.668Z,95.37
2023-01-21T08:37:41.468Z,95.37
2023-01-21T08:38:41.499Z,95.05
2023-01-21T08:39:42.103Z,94.73
2023-01-21T08:40:41.874Z,94.95
2023-01-21T08:41:41.426Z,94.90
2023-01-21T08:42:41.620Z,95.01
2023-01-21T08:43:41.405Z,95.01
2023-01-21T08:44:41.393Z,94.65
2023-01-21T08:45:41.493Z,94.86
2023-01-21T08:46:41.377Z,94.23
2023-01-21T08:47:41.357Z,94.18
2023-01-21T08:48:41.355Z,94.08
2023-01-21T08:49:41.352Z,93.76
2023-01-21T08:50:41.350Z,93.03
2023-01-21T08:51:42.284Z,92.82
2023-01-21T08:52:41.330Z,93.24
2023-01-21T08:53:41.308Z,93.13
2023-01-21T08:54:41.339Z,92.29
2023-01-21T08:55:41.295Z,92.12
2023-01-21T08:56:41.286Z,92.50
2023-01-21T08:57:41.512Z,93.03
2023-01-21T08:58:41.268Z,92.71
2023-01-21T08:59:41.248Z,92.50
2023-01-21T09:00:41.264Z,92.50
2023-01-21T09:01:41.251Z,93.03
2023-01-21T09:02:41.239Z,92.99
2023-01-21T09:03:41.619Z,93.09
2023-01-21T09:04:41.228Z,92.57
2023-01-21T09:05:41.197Z,92.35
2023-01-21T09:06:41.183Z,92.46
2023-01-21T09:07:41.180Z,92.57
2023-01-21T09:08:41.147Z,92.35
2023-01-21T09:09:41.137Z,91.83
2023-01-21T09:10:41.137Z,91.83
2023-01-21T09:11:41.129Z,92.14
2023-01-21T09:12:41.138Z,92.10
2023-01-21T09:13:41.167Z,91.78
2023-01-21T09:14:41.108Z,91.64
2023-01-21T09:15:41.084Z,91.43
2023-01-21T09:16:41.138Z,90.80
2023-01-21T09:17:41.074Z,90.38
2023-01-21T09:18:41.057Z,90.48
2023-01-21T09:19:41.039Z,91.11
2023-01-21T09:20:41.040Z,91.43
2023-01-21T09:21:41.011Z,91.11
2023-01-21T09:22:41.021Z,91.11
2023-01-21T09:23:41.000Z,90.59
2023-01-21T09:24:40.999Z,91.22
2023-01-21T09:25:41.786Z,91.53
2023-01-21T09:26:40.972Z,91.64
2023-01-21T09:27:40.957Z,92.16
2023-01-21T09:28:40.953Z,91.85
2023-01-21T09:29:40.975Z,91.64
2023-01-21T09:30:40.998Z,91.43
2023-01-21T09:31:40.961Z,91.22
2023-01-21T09:32:40.899Z,91.18
2023-01-21T09:33:40.917Z,91.18
2023-01-21T09:34:40.890Z,90.61
2023-01-21T09:35:40.919Z,89.92
2023-01-21T09:36:40.852Z,90.40
2023-01-21T09:37:40.872Z,90.40
2023-01-21T09:38:40.848Z,90.36
2023-01-21T09:39:40.863Z,89.06
2023-01-21T09:40:40.821Z,88.32
2023-01-21T09:41:40.872Z,88.22
2023-01-21T09:42:40.813Z,88.54
2023-01-21T09:43:40.816Z,88.57
2023-01-21T09:44:40.787Z,89.73
2023-01-21T09:45:40.797Z,90.00
2023-01-21T09:46:40.766Z,89.34
2023-01-21T09:47:40.789Z,88.71
2023-01-21T09:48:40.751Z,88.04
2023-01-21T09:49:40.745Z,87.62
2023-01-21T09:50:40.731Z,87.16
2023-01-21T09:51:40.739Z,86.38
2023-01-21T09:52:40.726Z,85.97
2023-01-21T09:53:40.896Z,85.34
2023-01-21T09:54:40.698Z,85.38
2023-01-21T09:55:40.676Z,85.90
2023-01-21T09:56:40.671Z,85.55
2023-01-21T09:57:40.735Z,85.61
2023-01-21T09:58:40.747Z,84.32
2023-01-21T09:59:40.644Z,83.03
2023-01-21T10:00:40.634Z,82.89
2023-01-21T10:01:40.616Z,82.32
2023-01-21T10:02:41.674Z,82.46
2023-01-21T10:03:40.605Z,81.38
2023-01-21T10:04:40.736Z,80.65
2023-01-21T10:05:40.597Z,79.15
2023-01-21T10:06:41.239Z,79.50
2023-01-21T10:07:41.381Z,80.93
2023-01-21T10:08:40.564Z,82.57
2023-01-21T10:09:40.545Z,82.53
2023-01-21T10:10:40.553Z,80.76
2023-01-21T10:11:40.667Z,80.30
2023-01-21T10:12:41.032Z,79.29
2023-01-21T10:13:40.519Z,79.15
2023-01-21T10:14:40.483Z,78.04
2023-01-21T10:15:40.490Z,79.57
2023-01-21T10:16:40.652Z,79.25
2023-01-21T10:17:40.457Z,78.52
2023-01-21T10:18:40.535Z,77.90
2023-01-21T10:19:40.458Z,77.34
2023-01-21T10:20:40.434Z,76.82
2023-01-21T10:21:40.420Z,77.45
2023-01-21T10:22:40.413Z,77.45
2023-01-21T10:23:42.792Z,77.69
2023-01-21T10:24:40.575Z,78.35
2023-01-21T10:25:40.551Z,78.59
2023-01-21T10:26:40.359Z,79.22
2023-01-21T10:27:40.400Z,79.36
2023-01-21T10:28:40.439Z,79.99
2023-01-21T10:29:40.458Z,80.62
2023-01-21T10:30:40.419Z,80.62
2023-01-21T10:31:40.449Z,81.66
2023-01-21T10:32:40.291Z,80.27
2023-01-21T10:33:40.296Z,81.31
2023-01-21T10:34:40.286Z,81.16
2023-01-21T10:35:40.381Z,79.39
2023-01-21T10:36:40.259Z,79.33
2023-01-21T10:37:40.263Z,79.78
2023-01-21T10:38:40.242Z,80.41
2023-01-21T10:39:40.245Z,81.56
2023-01-21T10:40:40.224Z,81.56
2023-01-21T10:41:40.222Z,81.41
2023-01-21T10:42:40.211Z,80.51
2023-01-21T10:43:40.188Z,80.47
2023-01-21T10:44:40.193Z,80.47
2023-01-21T10:45:40.184Z,80.16
2023-01-21T10:46:40.162Z,80.68
2023-01-21T10:47:40.146Z,80.93
2023-01-21T10:48:40.142Z,81.10
2023-01-21T10:49:40.130Z,81.06
2023-01-21T10:50:40.123Z,81.23
2023-01-21T10:51:40.108Z,79.36
2023-01-21T10:52:40.116Z,78.63
2023-01-21T10:53:40.096Z,78.00
2023-01-21T10:54:40.082Z,79.25
2023-01-21T10:55:40.071Z,79.46
2023-01-21T10:56:40.063Z,78.42
2023-01-21T10:57:40.042Z,79.05
2023-01-21T10:58:40.024Z,78.83
2023-01-21T10:59:40.035Z,79.67
2023-01-21T11:00:40.014Z,78.00
2023-01-21T11:01:40.154Z,78.73
2023-01-21T11:02:40.042Z,78.34
2023-01-21T11:03:40.004Z,76.72
2023-01-21T11:04:39.965Z,78.59
2023-01-21T11:05:39.967Z,78.83
2023-01-21T11:06:39.975Z,79.18
2023-01-21T11:07:39.939Z,78.24
2023-01-21T11:08:39.952Z,77.55
2023-01-21T11:09:39.921Z,78.91
2023-01-21T11:10:39.900Z,79.01
2023-01-21T11:11:39.898Z,79.22
2023-01-21T11:12:39.879Z,78.07
2023-01-21T11:13:39.887Z,78.11
2023-01-21T11:14:39.894Z,80.54
2023-01-21T11:15:39.897Z,81.13
2023-01-21T11:16:39.866Z,80.40
2023-01-21T11:17:39.864Z,80.19
2023-01-21T11:18:39.832Z,79.19
2023-01-21T11:19:39.836Z,80.27
2023-01-21T11:20:39.807Z,81.76
2023-01-21T11:21:39.800Z,82.39
2023-01-21T11:22:39.786Z,82.12
2023-01-21T11:23:39.770Z,82.50
2023-01-21T11:24:39.766Z,82.60
2023-01-21T11:25:39.771Z,82.07
2023-01-21T11:26:39.737Z,81.87
2023-01-21T11:27:39.745Z,82.32
2023-01-21T11:28:39.723Z,83.12
2023-01-21T11:29:39.728Z,82.60
2023-01-21T11:30:50.686Z,82.07
2023-01-21T11:31:40.787Z,82.29
2023-01-21T11:32:39.705Z,82.50
2023-01-21T11:33:40.742Z,81.87
2023-01-21T11:34:39.665Z,81.87
2023-01-21T11:35:39.683Z,80.99
2023-01-21T11:36:39.671Z,80.41
2023-01-21T11:37:39.663Z,81.03
2023-01-21T11:38:39.615Z,82.22
2023-01-21T11:39:39.643Z,83.30
2023-01-21T11:40:39.606Z,83.09
2023-01-21T11:41:39.944Z,82.46
2023-01-21T11:42:39.576Z,82.67
2023-01-21T11:43:39.585Z,82.12
2023-01-21T11:44:39.554Z,81.31
2023-01-21T11:45:39.563Z,80.96
2023-01-21T11:46:39.535Z,79.85
2023-01-21T11:47:39.536Z,80.44
2023-01-21T11:48:39.515Z,79.60
2023-01-21T11:49:39.529Z,78.31
2023-01-21T11:50:39.533Z,78.25
2023-01-21T11:51:39.495Z,78.18
2023-01-21T11:52:39.482Z,78.91
2023-01-21T11:53:39.485Z,79.64
2023-01-21T11:54:39.514Z,79.05
2023-01-21T11:55:39.457Z,79.29
2023-01-21T11:56:39.505Z,80.44
2023-01-21T11:57:40.264Z,80.31
2023-01-21T11:58:39.433Z,81.39
2023-01-21T11:59:39.410Z,81.87
2023-01-21T12:00:39.413Z,81.35
2023-01-21T12:01:39.780Z,80.97
2023-01-21T12:02:39.389Z,81.43
2023-01-21T12:03:39.407Z,81.92
2023-01-21T12:04:39.349Z,81.81
2023-01-21T12:05:39.351Z,82.23
2023-01-21T12:06:39.339Z,81.42
2023-01-21T12:07:39.349Z,79.96
2023-01-21T12:08:39.317Z,80.20
2023-01-21T12:09:39.309Z,81.35
2023-01-21T12:10:39.293Z,81.32
2023-01-21T12:11:39.347Z,79.12
2023-01-21T12:12:39.302Z,80.35
2023-01-21T12:13:39.271Z,80.62
2023-01-21T12:14:39.252Z,80.10
2023-01-21T12:15:39.336Z,80.41
2023-01-21T12:16:39.256Z,80.27
2023-01-21T12:17:40.252Z,80.27
2023-01-21T12:18:39.822Z,80.02
2023-01-21T12:19:39.202Z,79.61
2023-01-21T12:20:39.196Z,79.54
2023-01-21T12:21:39.193Z,79.96
2023-01-21T12:22:39.190Z,80.20
2023-01-21T12:23:39.174Z,79.79
2023-01-21T12:24:39.164Z,79.22
2023-01-21T12:25:39.143Z,80.10
2023-01-21T12:26:39.131Z,80.73
2023-01-21T12:27:39.135Z,80.20
2023-01-21T12:28:39.104Z,80.79
2023-01-21T12:29:39.106Z,81.00
2023-01-21T12:30:39.116Z,80.48
2023-01-21T12:31:39.148Z,81.04
2023-01-21T12:32:39.074Z,80.10
2023-01-21T12:33:39.065Z,80.31
2023-01-21T12:34:39.045Z,81.15
2023-01-21T12:35:39.068Z,81.46
2023-01-21T12:36:39.032Z,80.93
2023-01-21T12:37:39.042Z,81.25
2023-01-21T12:38:39.025Z,81.81
2023-01-21T12:39:39.012Z,82.09
2023-01-21T12:40:38.978Z,80.73
2023-01-21T12:41:39.010Z,81.49
2023-01-21T12:42:38.969Z,82.40
2023-01-21T12:43:38.966Z,81.67
2023-01-21T12:44:38.937Z,80.52
2023-01-21T12:45:38.937Z,80.17
2023-01-21T12:46:38.959Z,82.23
2023-01-21T12:47:38.925Z,81.92
2023-01-21T12:48:38.908Z,82.12
2023-01-21T12:49:38.920Z,81.29
2023-01-21T12:50:39.088Z,82.02
2023-01-21T12:51:38.878Z,81.60
2023-01-21T12:52:38.878Z,81.81